Airfield :
LOGIN :

Register | Disclaimer

   EN    FR    IT 

 










Legend :    VFR   Marginal VFR   IFR   Intensive IFR   Very Intensive IFR
Visi :
Ceiling :
>= 8 km
>= 3000ft
5 to 8 km
1000 to 3000 ft
1500m to 5 km
500 to 1000 ft
800 to 1500m
200 to 500 ft
< 800m
< 200 ft
Symbols :   Thunderstorms  Fog  Heavy snow  Heavy precipitations  Wind > 20 kt
SIGMETs :     Misc.  Thunderstorms  Icing  Turbulence  Mountain Waves  Volcanic Ashes






- Airport Elevation : 2077 ft
- IATA code : FMM


EDJA - Memmingen

CURRENT METAR :
  • 171850Z 22008KT 9999 SCT028 BKN041 02/M01 Q1034

EXPIRED METARs :
  • 171820Z 25011KT 9999 FEW031 SCT040 OVC055 02/M02 Q1034
  • 171750Z 25010KT 9999 FEW034 SCT040 OVC051 02/M01 Q1034
  • 171720Z 25010KT 9999 SCT035 BKN043 OVC051 02/M01 Q1034
  • 171650Z 27009KT 9999 FEW020 OVC034 03/M01 Q1033
  • 171620Z 26011KT 9999 OVC034 03/M00 Q1033

TAF TAF EDJA
Valid from the 17 at 18:00 until the 18 at 03:00 UTC


171700Z 1718/1803 26010KT 9999 SCT020 BKN030
PROB40
TEMPO 1721/1803 4000 -RASN BKN012
BECMG 1723/1801 23005KT



MET'MAP, your aeronautical weather chart ! - Copyright ORBIFLY December 2007 - Disclaimer

ORBIFLY MET'MAP TEAM :

Programming & Development : Alexandra Zaïnal
Concept & original design : Baudouin d'Aumeries
Assistance for programming : Marc-Olivier Méhu
Technical & hardware support : Manuel Goepfert

Contact : metmap@orbifly.com




SOURCES & CREDITS :

   NOAA